Time;durP1;ratioP1;P1;durP2;ratioP2;P2;SDS_P1;SDS_P2;PMS_P1;PMS_P2;Temp;Humidity;BMP_temperature;BMP_pressure;BME280_temperature;BME280_humidity;BME280_pressure;Samples;Min_cycle;Max_cycle;Signal;HPM_P1;HPM_P2
2021/08/25 00:00:01;;;;;;;5.73;3.20;;;;;;;10.10;100.00;101952.28;5018224;28;20203;-70
2021/08/25 00:02:26;;;;;;;8.83;3.60;;;;;;;10.16;100.00;101946.75;5016962;28;20172;-68
2021/08/25 00:04:51;;;;;;;11.87;4.40;;;;;;;10.36;100.00;101942.53;5017500;28;20197;-70
2021/08/25 00:07:17;;;;;;;6.23;4.27;;;;;;;10.55;100.00;101949.00;5016654;28;20213;-68
2021/08/25 00:09:42;;;;;;;4.20;3.40;;;;;;;10.63;100.00;101946.94;5015855;28;20200;-69
2021/08/25 00:12:10;;;;;;;9.17;3.97;;;;;;;10.84;100.00;101940.84;5015559;28;20395;-69
2021/08/25 00:14:40;;;;;;;6.10;3.87;;;;;;;10.82;100.00;101929.34;5016579;28;20660;-68
2021/08/25 00:17:05;;;;;;;8.07;3.87;;;;;;;10.73;100.00;101929.66;5015382;28;20180;-69
2021/08/25 00:19:30;;;;;;;5.83;3.00;;;;;;;10.49;100.00;101917.19;5015159;28;20176;-69
2021/08/25 00:21:56;;;;;;;7.33;3.83;;;;;;;10.38;100.00;101917.53;5015209;28;20658;-70
2021/08/25 00:24:22;;;;;;;8.70;3.30;;;;;;;10.42;100.00;101905.88;5016321;28;20219;-69
2021/08/25 00:26:47;;;;;;;7.80;3.60;;;;;;;10.53;100.00;101892.13;5017084;28;20662;-69
2021/08/25 00:29:13;;;;;;;6.57;4.00;;;;;;;10.56;100.00;101892.88;5016839;28;20204;-69
2021/08/25 00:31:39;;;;;;;7.40;4.00;;;;;;;10.63;100.00;101893.53;5015197;28;20270;-68
2021/08/25 00:34:05;;;;;;;8.27;4.50;;;;;;;10.63;100.00;101890.84;5015343;28;20184;-68
2021/08/25 00:36:30;;;;;;;6.80;4.20;;;;;;;10.54;100.00;101888.53;5016449;28;20185;-69
2021/08/25 00:38:55;;;;;;;10.10;3.57;;;;;;;10.51;100.00;101888.66;5016628;28;20671;-69
2021/08/25 00:41:22;;;;;;;10.10;3.80;;;;;;;10.54;100.00;101878.72;5015919;28;20209;-68
2021/08/25 00:43:47;;;;;;;9.80;4.60;;;;;;;10.55;100.00;101876.94;5015033;28;20213;-69
2021/08/25 00:46:12;;;;;;;8.87;4.27;;;;;;;10.64;100.00;101881.91;5014818;28;20208;-70
2021/08/25 00:48:38;;;;;;;8.00;3.83;;;;;;;10.71;100.00;101874.56;5015249;28;20239;-68
2021/08/25 00:51:03;;;;;;;5.63;3.77;;;;;;;10.74;100.00;101874.44;4998572;28;20247;-69
2021/08/25 00:53:28;;;;;;;5.30;3.90;;;;;;;10.80;100.00;101875.09;5014998;28;20181;-69
2021/08/25 00:55:55;;;;;;;4.40;2.77;;;;;;;10.73;100.00;101873.56;5016459;28;20258;-69
2021/08/25 00:58:20;;;;;;;8.67;3.30;;;;;;;10.61;100.00;101871.34;5016228;28;20605;-69
2021/08/25 01:00:54;;;;;;;6.97;4.37;;;;;;;10.65;100.00;101865.84;5015662;28;20220;-69
2021/08/25 01:03:27;;;;;;;6.07;3.63;;;;;;;10.63;100.00;101867.69;5014100;28;20164;-69
2021/08/25 01:05:53;;;;;;;6.87;3.93;;;;;;;10.73;100.00;101862.88;5014852;28;20196;-68
2021/08/25 01:08:19;;;;;;;6.07;3.80;;;;;;;10.69;100.00;101871.06;5014478;28;20181;-69
2021/08/25 01:10:44;;;;;;;8.60;3.60;;;;;;;10.44;100.00;101865.78;5015749;28;20254;-69
2021/08/25 01:13:11;;;;;;;4.37;3.37;;;;;;;10.35;100.00;101861.63;5014514;28;20566;-69
2021/08/25 01:15:38;;;;;;;5.17;3.47;;;;;;;10.22;100.00;101855.84;5014789;28;20177;-69
2021/08/25 01:18:09;;;;;;;4.60;3.30;;;;;;;10.26;100.00;101859.28;5015546;28;20212;-69
2021/08/25 01:20:35;;;;;;;5.87;3.60;;;;;;;10.25;100.00;101854.88;5014144;28;20220;-69
2021/08/25 01:23:01;;;;;;;5.37;4.00;;;;;;;10.08;100.00;101846.56;5014489;28;20246;-69
2021/08/25 01:25:28;;;;;;;8.97;3.80;;;;;;;10.01;100.00;101845.88;5015289;28;20606;-69
2021/08/25 01:28:02;;;;;;;7.77;3.93;;;;;;;9.92;100.00;101841.75;5014662;28;20177;-70
2021/08/25 01:30:29;;;;;;;7.60;4.13;;;;;;;9.88;100.00;101836.56;5014334;28;20682;-69
2021/08/25 01:32:58;;;;;;;6.63;3.73;;;;;;;9.83;100.00;101831.41;5014603;28;20177;-70
2021/08/25 01:35:37;;;;;;;8.93;4.20;;;;;;;9.92;100.00;101836.41;5015834;28;20215;-69
2021/08/25 01:38:04;;;;;;;5.47;4.17;;;;;;;9.88;100.00;101833.91;5014341;28;20181;-69
2021/08/25 01:40:31;;;;;;;6.03;3.90;;;;;;;9.88;100.00;101836.56;5035908;23;20233;-73
2021/08/25 01:42:56;;;;;;;7.43;3.40;;;;;;;9.94;100.00;101833.69;5013659;28;20263;-73
2021/08/25 01:45:22;;;;;;;5.03;3.67;;;;;;;10.05;100.00;101828.00;5013724;28;20685;-73
2021/08/25 01:47:47;;;;;;;5.87;3.70;;;;;;;10.12;100.00;101814.38;5013481;28;20227;-72
2021/08/25 01:50:13;;;;;;;6.07;3.70;;;;;;;10.27;100.00;101815.66;5013413;28;20189;-72
2021/08/25 01:52:38;;;;;;;6.07;4.27;;;;;;;10.39;100.00;101804.53;5013529;28;20546;-73
2021/08/25 01:55:04;;;;;;;6.67;4.57;;;;;;;10.46;100.00;101805.19;5014934;28;20172;-72
2021/08/25 01:57:29;;;;;;;7.40;4.30;;;;;;;10.56;100.00;101803.94;5013560;28;20185;-72
2021/08/25 01:59:54;;;;;;;6.60;4.30;;;;;;;10.59;100.00;101795.78;5014229;28;20173;-72
2021/08/25 02:02:20;;;;;;;7.77;4.23;;;;;;;10.66;100.00;101794.63;5014321;28;20623;-72
2021/08/25 02:04:45;;;;;;;7.00;4.50;;;;;;;10.74;100.00;101792.53;5014334;28;20200;-72
2021/08/25 02:07:10;;;;;;;6.67;4.27;;;;;;;10.72;100.00;101790.84;5014919;28;20189;-73
2021/08/25 02:09:35;;;;;;;7.13;3.93;;;;;;;10.72;100.00;101782.84;5014377;28;20234;-73
2021/08/25 02:12:01;;;;;;;6.33;3.73;;;;;;;10.59;100.00;101780.66;5014306;28;20197;-72
2021/08/25 02:14:26;;;;;;;5.97;3.37;;;;;;;10.52;100.00;101783.63;5012781;28;20177;-73
2021/08/25 02:16:51;;;;;;;6.17;3.73;;;;;;;10.57;100.00;101785.19;5012818;28;20181;-73
2021/08/25 02:19:17;;;;;;;8.63;4.20;;;;;;;10.55;100.00;101779.03;5014477;28;20185;-73
2021/08/25 02:21:42;;;;;;;7.87;4.27;;;;;;;10.61;100.00;101777.91;5014332;28;20199;-73
2021/08/25 02:24:08;;;;;;;4.57;3.37;;;;;;;10.54;100.00;101765.75;4996383;28;20181;-72
2021/08/25 02:26:33;;;;;;;5.73;3.43;;;;;;;10.67;100.00;101764.34;5012722;28;20204;-73
2021/08/25 02:28:58;;;;;;;5.97;3.80;;;;;;;10.67;100.00;101763.47;5014211;28;20184;-73
2021/08/25 02:31:23;;;;;;;5.87;3.50;;;;;;;10.57;100.00;101763.81;5016077;28;20207;-73
2021/08/25 02:33:49;;;;;;;6.20;3.03;;;;;;;10.62;100.00;101752.97;5023579;28;20184;-73
2021/08/25 02:36:17;;;;;;;7.23;2.83;;;;;;;10.62;100.00;101755.63;5018947;28;20642;-72
2021/08/25 02:38:42;;;;;;;6.33;3.27;;;;;;;10.71;100.00;101749.06;5015483;28;20176;-72
2021/08/25 02:41:10;;;;;;;5.90;3.47;;;;;;;10.74;100.00;101746.28;5012879;28;20204;-73
2021/08/25 02:43:36;;;;;;;4.87;3.30;;;;;;;10.79;100.00;101736.31;5012590;28;20208;-73
2021/08/25 02:46:02;;;;;;;6.03;4.17;;;;;;;10.74;100.00;101730.25;5012518;28;20679;-73
2021/08/25 02:48:27;;;;;;;7.13;4.13;;;;;;;10.81;100.00;101735.31;5012756;28;20504;-73
2021/08/25 02:50:53;;;;;;;6.27;4.10;;;;;;;10.85;100.00;101728.91;5012967;28;20284;-73
2021/08/25 02:53:18;;;;;;;6.40;4.03;;;;;;;10.90;100.00;101726.94;5012939;28;20614;-73
2021/08/25 02:55:45;;;;;;;6.37;3.93;;;;;;;10.90;100.00;101734.06;5013637;28;20173;-73
2021/08/25 02:58:10;;;;;;;5.23;3.90;;;;;;;10.93;100.00;101732.16;5012324;28;20273;-73
2021/08/25 03:00:35;;;;;;;6.93;3.97;;;;;;;10.95;100.00;101732.06;5013929;28;20211;-73
2021/08/25 03:03:01;;;;;;;6.67;4.03;;;;;;;10.94;100.00;101719.66;4995773;28;20192;-73
2021/08/25 03:05:26;;;;;;;5.47;3.80;;;;;;;11.00;100.00;101716.72;5012238;28;20566;-73
2021/08/25 03:07:51;;;;;;;6.10;3.37;;;;;;;10.94;100.00;101715.19;5013452;28;20535;-73
2021/08/25 03:10:17;;;;;;;4.40;3.07;;;;;;;11.02;100.00;101708.66;5014801;28;20173;-73
2021/08/25 03:12:42;;;;;;;7.53;3.40;;;;;;;11.06;100.00;101707.59;5016477;28;20180;-73
2021/08/25 03:15:08;;;;;;;6.30;3.57;;;;;;;11.12;100.00;101712.69;5012193;28;20231;-73
2021/08/25 03:17:33;;;;;;;5.77;3.73;;;;;;;11.13;100.00;101709.94;5012041;28;20180;-73
2021/08/25 03:19:59;;;;;;;6.87;3.10;;;;;;;11.21;100.00;101709.66;5012276;28;20172;-73
2021/08/25 03:22:27;;;;;;;4.10;3.17;;;;;;;11.16;100.00;101707.19;5011890;28;20275;-73
2021/08/25 03:24:53;;;;;;;5.90;3.50;;;;;;;11.17;100.00;101702.69;5011921;28;20262;-73
2021/08/25 03:27:18;;;;;;;5.47;3.30;;;;;;;11.14;100.00;101694.78;5012705;28;20181;-73
2021/08/25 03:29:43;;;;;;;6.30;3.20;;;;;;;11.08;100.00;101682.56;5011623;28;20666;-73
2021/08/25 03:32:09;;;;;;;8.17;4.00;;;;;;;11.10;100.00;101678.00;5011936;28;20609;-73
2021/08/25 03:34:34;;;;;;;5.83;4.00;;;;;;;10.95;100.00;101678.66;5011908;28;20578;-73
2021/08/25 03:36:59;;;;;;;5.07;3.10;;;;;;;10.94;100.00;101669.78;5013386;28;20177;-73
2021/08/25 03:39:24;;;;;;;7.43;3.40;;;;;;;10.88;100.00;101674.50;4995464;28;20593;-73
2021/08/25 03:41:50;;;;;;;6.20;3.97;;;;;;;11.02;100.00;101672.13;5012632;28;20208;-73
2021/08/25 03:44:15;;;;;;;7.10;3.10;;;;;;;10.94;100.00;101667.09;5016018;28;20216;-73
2021/08/25 03:46:40;;;;;;;6.63;3.57;;;;;;;10.88;100.00;101664.69;5014251;28;20188;-73
2021/08/25 03:49:06;;;;;;;7.07;3.20;;;;;;;10.85;100.00;101671.97;5013294;28;20189;-73
2021/08/25 03:51:31;;;;;;;7.47;3.77;;;;;;;10.86;100.00;101671.03;5012251;28;20196;-73
2021/08/25 03:53:56;;;;;;;4.77;3.13;;;;;;;10.81;100.00;101673.91;5011683;28;20185;-73
2021/08/25 03:56:21;;;;;;;5.20;3.40;;;;;;;10.72;100.00;101668.91;5013298;28;20174;-73
2021/08/25 03:58:47;;;;;;;5.67;3.33;;;;;;;10.61;100.00;101666.66;5012512;28;20181;-73
2021/08/25 04:01:12;;;;;;;7.93;3.90;;;;;;;10.65;100.00;101656.72;5011825;28;20201;-73
2021/08/25 04:03:37;;;;;;;5.67;3.13;;;;;;;10.73;100.00;101653.75;5013258;28;20553;-72
2021/08/25 04:06:03;;;;;;;5.17;3.40;;;;;;;10.71;100.00;101656.47;5011475;28;20197;-74
2021/08/25 04:08:29;;;;;;;5.60;3.07;;;;;;;10.75;100.00;101655.41;5011853;28;20182;-73
2021/08/25 04:10:54;;;;;;;5.20;3.67;;;;;;;10.74;100.00;101650.16;5012641;28;20200;-73
2021/08/25 04:13:19;;;;;;;8.40;3.03;;;;;;;10.78;100.00;101646.41;5012693;28;20584;-73
2021/08/25 04:15:44;;;;;;;5.17;3.50;;;;;;;10.70;100.00;101646.72;5013065;28;20177;-73
2021/08/25 04:18:10;;;;;;;7.67;3.47;;;;;;;10.77;100.00;101642.00;5013303;28;20186;-73
2021/08/25 04:20:35;;;;;;;4.50;3.10;;;;;;;10.67;100.00;101641.53;5012741;28;20201;-73
2021/08/25 04:23:00;;;;;;;4.70;2.90;;;;;;;10.74;100.00;101639.47;5011759;28;20208;-73
2021/08/25 04:25:25;;;;;;;5.53;3.20;;;;;;;10.71;100.00;101634.25;5011482;28;20208;-72
2021/08/25 04:27:51;;;;;;;8.77;2.90;;;;;;;10.76;100.00;101621.59;5012742;28;20176;-73
2021/08/25 04:30:16;;;;;;;4.97;3.30;;;;;;;10.76;100.00;101630.47;5011582;28;20235;-73
2021/08/25 04:32:41;;;;;;;6.50;3.03;;;;;;;11.03;100.00;101625.78;5011394;28;20208;-72
2021/08/25 04:35:07;;;;;;;4.87;2.60;;;;;;;11.31;100.00;101625.47;5011413;28;20227;-72
2021/08/25 04:37:33;;;;;;;4.57;3.13;;;;;;;11.37;100.00;101625.19;5011381;28;20184;-73
2021/08/25 04:39:58;;;;;;;4.33;2.60;;;;;;;11.51;100.00;101622.78;5014712;28;20231;-73
2021/08/25 04:42:23;;;;;;;3.97;2.93;;;;;;;11.58;100.00;101610.91;5014963;28;20212;-74
2021/08/25 04:44:48;;;;;;;6.07;3.30;;;;;;;11.66;100.00;101612.34;5016558;28;20201;-74
2021/08/25 04:47:14;;;;;;;4.37;2.63;;;;;;;11.81;100.00;101614.34;5016353;28;20649;-74
2021/08/25 04:49:39;;;;;;;4.53;3.07;;;;;;;11.91;100.00;101617.50;5016005;28;20176;-73
2021/08/25 04:52:04;;;;;;;4.67;3.00;;;;;;;11.82;100.00;101616.97;5015451;28;20200;-73
2021/08/25 04:54:29;;;;;;;3.73;2.53;;;;;;;11.71;100.00;101613.88;5014817;28;20172;-73
2021/08/25 04:56:55;;;;;;;4.60;2.80;;;;;;;11.77;100.00;101621.63;5016290;28;20192;-73
2021/08/25 04:59:20;;;;;;;9.47;3.00;;;;;;;11.81;100.00;101614.34;5016322;28;20579;-73
2021/08/25 05:01:45;;;;;;;4.17;3.00;;;;;;;12.08;100.00;101618.44;5015683;28;20197;-73
2021/08/25 05:04:11;;;;;;;5.70;3.13;;;;;;;12.14;100.00;101618.16;5014440;28;20177;-72
2021/08/25 05:06:38;;;;;;;5.27;2.43;;;;;;;12.01;100.00;101618.81;5018233;28;20187;-73
2021/08/25 05:09:03;;;;;;;6.43;3.13;;;;;;;12.03;100.00;101616.94;5015279;28;20181;-73
2021/08/25 05:11:28;;;;;;;7.83;2.90;;;;;;;12.21;99.51;101613.38;5015632;28;20197;-74
2021/08/25 05:13:54;;;;;;;2.93;2.37;;;;;;;12.23;99.63;101607.94;5015974;28;20184;-70
2021/08/25 05:16:19;;;;;;;7.90;2.90;;;;;;;12.32;98.47;101604.84;5016000;28;20169;-70
2021/08/25 05:18:44;;;;;;;4.37;2.50;;;;;;;12.08;99.14;101601.53;5016332;28;20187;-70
2021/08/25 05:21:10;;;;;;;4.57;2.87;;;;;;;12.20;98.28;101596.44;4998446;28;20197;-70
2021/08/25 05:23:36;;;;;;;4.40;2.50;;;;;;;12.28;95.57;101589.91;5015438;28;20181;-70
2021/08/25 05:26:03;;;;;;;4.53;2.70;;;;;;;12.28;97.57;101584.53;5014991;28;20193;-68
2021/08/25 05:28:28;;;;;;;4.97;2.73;;;;;;;12.20;96.91;101583.06;5014167;28;20169;-69
2021/08/25 05:30:53;;;;;;;3.97;2.57;;;;;;;12.39;96.74;101587.56;5015003;28;20208;-69
2021/08/25 05:33:18;;;;;;;4.97;2.60;;;;;;;12.42;95.66;101574.88;5013628;28;20520;-68
2021/08/25 05:35:44;;;;;;;4.50;2.60;;;;;;;12.35;96.62;101573.44;5015016;28;20176;-69
2021/08/25 05:38:09;;;;;;;4.00;2.67;;;;;;;12.63;93.37;101558.69;5013482;28;20173;-69
2021/08/25 05:40:34;;;;;;;4.10;2.60;;;;;;;12.36;95.10;101566.28;5014604;28;20698;-71
2021/08/25 05:43:00;;;;;;;4.93;3.10;;;;;;;12.52;94.49;101562.78;5014943;28;20176;-71
2021/08/25 05:45:25;;;;;;;4.37;2.70;;;;;;;12.72;92.03;101551.09;5013610;28;20279;-67
2021/08/25 05:47:52;;;;;;;6.43;2.87;;;;;;;12.82;92.04;101549.66;5013511;28;20275;-71
2021/08/25 05:50:18;;;;;;;4.53;2.57;;;;;;;12.60;94.24;101557.03;5013300;28;20180;-71
2021/08/25 05:52:43;;;;;;;4.30;2.70;;;;;;;12.68;92.84;101552.19;5013567;28;20184;-71
2021/08/25 05:55:09;;;;;;;4.10;2.53;;;;;;;12.64;94.27;101545.25;5014845;28;20181;-72
2021/08/25 05:57:34;;;;;;;5.17;2.90;;;;;;;12.73;93.97;101550.13;5014526;28;20642;-72
2021/08/25 05:59:59;;;;;;;5.10;2.60;;;;;;;12.82;94.89;101546.97;5013497;28;20193;-71
2021/08/25 06:02:25;;;;;;;5.60;3.10;;;;;;;13.04;91.79;101541.41;5013577;28;20208;-72
2021/08/25 06:04:50;;;;;;;4.40;2.50;;;;;;;13.14;90.87;101531.94;5013762;28;20205;-72
2021/08/25 06:07:15;;;;;;;5.33;3.00;;;;;;;12.83;91.21;101538.00;5014999;28;20268;-72
2021/08/25 06:09:41;;;;;;;5.40;2.70;;;;;;;12.95;89.24;101523.09;5013472;28;20180;-71
2021/08/25 06:12:06;;;;;;;5.47;3.07;;;;;;;13.04;87.76;101521.78;5014318;28;20247;-71
2021/08/25 06:14:32;;;;;;;4.87;2.57;;;;;;;13.17;86.24;101527.34;5014514;28;20165;-71
2021/08/25 06:16:57;;;;;;;8.27;2.87;;;;;;;13.17;86.30;101520.22;5014198;28;20231;-71
2021/08/25 06:19:23;;;;;;;4.00;2.60;;;;;;;13.28;85.25;101509.78;5012795;28;20169;-72
2021/08/25 06:21:48;;;;;;;7.23;3.30;;;;;;;13.12;85.53;101514.19;5013880;28;20213;-71
2021/08/25 06:24:14;;;;;;;3.97;2.40;;;;;;;13.01;86.12;101500.50;5013903;28;20173;-71
2021/08/25 06:26:39;;;;;;;4.20;2.90;;;;;;;13.15;86.33;101500.63;5012603;28;20271;-72
2021/08/25 06:29:05;;;;;;;3.73;2.80;;;;;;;13.19;86.07;101502.22;5013754;28;20609;-73
2021/08/25 06:31:30;;;;;;;4.70;2.73;;;;;;;13.16;86.66;101502.34;5015838;28;20201;-73
2021/08/25 06:33:56;;;;;;;4.93;2.97;;;;;;;13.47;85.16;101490.03;5014219;28;20184;-72
2021/08/25 06:36:21;;;;;;;6.00;2.70;;;;;;;13.45;84.88;101488.28;5014217;28;20678;-73
2021/08/25 06:38:46;;;;;;;4.80;3.00;;;;;;;13.50;84.87;101476.44;5014322;28;20185;-72
2021/08/25 06:41:12;;;;;;;4.47;2.73;;;;;;;13.67;83.63;101471.88;5014971;28;20208;-73
2021/08/25 06:43:37;;;;;;;5.83;3.27;;;;;;;13.72;83.00;101467.09;5013879;28;20222;-72
2021/08/25 06:46:03;;;;;;;4.27;2.80;;;;;;;13.37;84.74;101469.06;5013835;28;20566;-73
2021/08/25 06:48:28;;;;;;;7.80;3.50;;;;;;;13.55;82.93;101466.34;5013889;28;20243;-73
2021/08/25 06:50:53;;;;;;;6.27;3.70;;;;;;;13.91;81.55;101453.53;5014171;28;20203;-71
2021/08/25 06:53:20;;;;;;;4.10;2.77;;;;;;;13.84;81.96;101449.47;5014486;28;20181;-72
2021/08/25 06:55:45;;;;;;;4.03;2.60;;;;;;;13.72;82.11;101451.00;5013727;28;20172;-72
2021/08/25 06:58:10;;;;;;;6.00;2.97;;;;;;;13.79;81.75;101440.81;5013482;28;20551;-71
2021/08/25 07:00:35;;;;;;;5.20;3.20;;;;;;;13.74;81.79;101440.19;5013115;28;20247;-71
2021/08/25 07:03:01;;;;;;;4.00;2.90;;;;;;;13.86;80.43;101439.53;5012757;28;20177;-71
2021/08/25 07:05:26;;;;;;;6.60;3.20;;;;;;;13.91;80.79;101437.44;5013775;28;20259;-71
2021/08/25 07:07:52;;;;;;;3.87;2.57;;;;;;;13.69;80.83;101431.53;5013170;28;20235;-71
2021/08/25 07:10:17;;;;;;;6.33;2.57;;;;;;;13.71;80.65;101429.63;5011743;28;20189;-71
2021/08/25 07:12:42;;;;;;;7.53;2.87;;;;;;;14.13;79.15;101429.03;5011987;28;20211;-71
2021/08/25 07:15:15;;;;;;;4.60;2.90;;;;;;;14.21;78.69;101413.31;4995476;28;20177;-71
2021/08/25 07:17:40;;;;;;;7.43;2.63;;;;;;;14.24;78.23;101409.59;5013242;28;20508;-71
2021/08/25 07:20:06;;;;;;;3.87;2.63;;;;;;;14.54;77.17;101410.50;5013008;28;20191;-72
2021/08/25 07:22:31;;;;;;;3.33;2.53;;;;;;;14.45;77.09;101410.16;5011691;28;20188;-72
2021/08/25 07:24:56;;;;;;;5.27;3.60;;;;;;;14.69;75.86;101403.31;5012790;28;20282;-72
2021/08/25 07:27:22;;;;;;;7.10;2.90;;;;;;;14.96;75.39;101404.31;5011952;28;20177;-72
2021/08/25 07:29:48;;;;;;;4.67;3.20;;;;;;;15.13;73.25;101391.63;5013295;28;20181;-72
2021/08/25 07:32:13;;;;;;;3.77;2.97;;;;;;;15.22;73.60;101386.53;5013105;28;20227;-72
2021/08/25 07:34:38;;;;;;;6.60;3.13;;;;;;;14.99;74.19;101384.44;5011699;28;20169;-72
2021/08/25 07:37:04;;;;;;;5.07;2.80;;;;;;;15.26;72.63;101379.16;4995442;28;20181;-72
2021/08/25 07:39:29;;;;;;;4.90;3.00;;;;;;;15.28;72.18;101364.66;5011854;28;20180;-72
2021/08/25 07:41:55;;;;;;;5.77;3.00;;;;;;;15.20;72.89;101372.31;5035667;23;20224;-72
2021/08/25 07:44:20;;;;;;;4.63;2.80;;;;;;;15.48;71.52;101367.84;5012912;28;20212;-72
2021/08/25 07:46:46;;;;;;;4.93;2.87;;;;;;;15.67;70.71;101364.88;5012845;28;20201;-72
2021/08/25 07:49:11;;;;;;;4.47;3.07;;;;;;;15.62;70.24;101368.75;5013056;28;20268;-74
2021/08/25 07:51:36;;;;;;;4.53;2.90;;;;;;;15.55;70.10;101377.25;4997158;28;20204;-72
2021/08/25 07:54:03;;;;;;;5.33;3.67;;;;;;;15.71;69.90;101361.88;5012825;28;20227;-72
2021/08/25 07:56:28;;;;;;;6.80;3.10;;;;;;;15.64;70.33;101355.19;5013269;28;20180;-72
2021/08/25 07:58:55;;;;;;;6.43;3.57;;;;;;;15.88;69.87;101347.28;5013132;28;20185;-74
2021/08/25 08:01:20;;;;;;;5.33;3.27;;;;;;;15.77;69.61;101339.94;5013268;28;20189;-70
2021/08/25 08:03:45;;;;;;;4.90;3.57;;;;;;;15.76;70.59;101331.97;5012934;28;20176;-72
2021/08/25 08:06:11;;;;;;;5.87;3.03;;;;;;;15.63;70.56;101340.00;5011749;28;20247;-70
2021/08/25 08:08:36;;;;;;;7.37;3.53;;;;;;;15.73;70.69;101332.19;5011791;28;20236;-72
2021/08/25 08:11:01;;;;;;;7.43;3.10;;;;;;;15.74;71.26;101333.91;5011471;28;20671;-71
2021/08/25 08:13:27;;;;;;;4.70;3.17;;;;;;;15.84;70.46;101335.00;5014239;28;20176;-71
2021/08/25 08:15:52;;;;;;;6.07;2.93;;;;;;;15.88;70.65;101328.44;5016543;28;20181;-72
2021/08/25 08:18:28;;;;;;;8.60;3.07;;;;;;;15.93;70.22;101319.09;5017290;28;20204;-72
2021/08/25 08:20:53;;;;;;;5.50;2.77;;;;;;;16.07;70.78;101318.19;5016476;28;20223;-70
2021/08/25 08:23:18;;;;;;;4.77;3.37;;;;;;;16.02;69.96;101314.94;5015384;28;20181;-71
2021/08/25 08:25:44;;;;;;;6.40;3.37;;;;;;;16.06;70.42;101313.75;5016487;28;20566;-71
2021/08/25 08:28:09;;;;;;;3.70;2.80;;;;;;;16.06;70.76;101303.00;5015686;28;20259;-70
2021/08/25 08:30:35;;;;;;;6.60;3.03;;;;;;;16.31;69.44;101298.59;5016765;28;20231;-71
2021/08/25 08:33:00;;;;;;;7.40;2.80;;;;;;;16.27;69.35;101308.72;5016431;28;20260;-70
2021/08/25 08:35:25;;;;;;;7.20;3.57;;;;;;;16.30;69.41;101289.63;5015013;28;20169;-70
2021/08/25 08:37:51;;;;;;;6.03;3.00;;;;;;;16.36;69.80;101288.38;5016667;28;20543;-70
2021/08/25 08:40:16;;;;;;;4.80;3.00;;;;;;;16.22;69.54;101286.63;5017171;28;20181;-71
2021/08/25 08:42:41;;;;;;;4.37;3.00;;;;;;;16.23;70.48;101282.97;5016571;28;20231;-73
2021/08/25 08:45:08;;;;;;;5.33;3.53;;;;;;;16.41;69.59;101286.22;5015416;28;20654;-71
2021/08/25 08:47:34;;;;;;;11.37;3.33;;;;;;;16.58;69.30;101275.09;5015373;28;20177;-71
2021/08/25 08:50:00;;;;;;;6.07;3.67;;;;;;;16.39;69.30;101272.88;5015267;28;20177;-72
2021/08/25 08:52:26;;;;;;;5.60;3.73;;;;;;;16.59;68.82;101266.06;5015141;28;20204;-72
2021/08/25 08:54:54;;;;;;;5.20;3.00;;;;;;;16.63;68.75;101266.69;5014949;28;20177;-73
2021/08/25 08:57:19;;;;;;;9.57;3.47;;;;;;;16.99;68.25;101258.69;5015463;28;20287;-71
2021/08/25 08:59:45;;;;;;;4.27;3.33;;;;;;;16.91;68.25;101258.38;5016087;28;20212;-73
2021/08/25 09:02:11;;;;;;;5.73;3.80;;;;;;;17.18;68.15;101250.13;5015911;28;20287;-71
2021/08/25 09:04:43;;;;;;;7.80;3.00;;;;;;;17.04;67.82;101245.72;5016098;28;20204;-72
2021/08/25 09:07:19;;;;;;;4.93;3.10;;;;;;;17.01;67.64;101237.00;5015998;28;20164;-71
2021/08/25 09:09:55;;;;;;;5.03;3.30;;;;;;;16.81;68.33;101225.84;5014364;28;20280;-71
2021/08/25 09:12:22;;;;;;;5.20;3.10;;;;;;;16.81;67.92;101242.03;5015151;28;20212;-70
2021/08/25 09:14:47;;;;;;;5.87;3.23;;;;;;;17.09;67.77;101254.31;5017573;28;20169;-71
2021/08/25 09:17:25;;;;;;;7.30;3.77;;;;;;;17.24;68.39;101236.16;5015908;28;20657;-70
2021/08/25 09:19:50;;;;;;;4.77;3.13;;;;;;;17.32;67.94;101219.41;4998322;28;20165;-71
2021/08/25 09:22:19;;;;;;;7.07;3.33;;;;;;;17.42;67.44;101215.88;5014701;28;20201;-70
2021/08/25 09:24:45;;;;;;;8.77;3.33;;;;;;;17.56;67.41;101206.75;5015494;28;20204;-71
2021/08/25 09:27:14;;;;;;;6.17;2.97;;;;;;;17.56;67.05;101197.81;5014619;28;20177;-72
2021/08/25 09:29:41;;;;;;;7.53;2.90;;;;;;;17.47;66.96;101193.97;5014441;28;20694;-72
2021/08/25 09:32:20;;;;;;;5.73;2.90;;;;;;;17.59;67.48;101187.63;4998099;28;20204;-72
2021/08/25 09:34:45;;;;;;;4.33;2.67;;;;;;;17.71;65.90;101199.34;5014371;28;20172;-72
2021/08/25 09:37:15;;;;;;;4.20;2.90;;;;;;;17.77;64.68;101186.25;5014771;28;20173;-73
2021/08/25 09:39:46;;;;;;;5.67;2.97;;;;;;;17.86;64.07;101186.53;5014212;28;20235;-72
2021/08/25 09:42:12;;;;;;;13.40;5.90;;;;;;;17.93;63.11;101176.97;5013808;28;20224;-71
2021/08/25 09:44:38;;;;;;;5.53;3.37;;;;;;;18.10;63.13;101160.28;5014915;28;20189;-70
2021/08/25 09:47:03;;;;;;;5.77;3.83;;;;;;;18.35;62.84;101157.34;5014033;28;20195;-71
2021/08/25 09:49:29;;;;;;;6.17;3.00;;;;;;;18.54;61.51;101156.72;5014235;28;20276;-71
2021/08/25 09:51:54;;;;;;;9.10;2.87;;;;;;;18.48;62.91;101151.81;5014713;28;20209;-71
2021/08/25 09:54:21;;;;;;;6.47;3.03;;;;;;;18.26;62.33;101133.78;5015731;28;20177;-71
2021/08/25 09:56:46;;;;;;;5.33;2.93;;;;;;;18.13;62.70;101152.78;5014966;28;20181;-71
2021/08/25 09:59:13;;;;;;;3.43;2.63;;;;;;;17.98;62.58;101124.31;5015002;28;20551;-72
2021/08/25 10:01:39;;;;;;;7.07;3.17;;;;;;;18.29;61.79;101075.94;5013684;28;20193;-71
2021/08/25 10:04:07;;;;;;;5.03;2.77;;;;;;;18.41;61.91;101101.94;4997325;28;20189;-71
2021/08/25 10:06:35;;;;;;;6.67;2.97;;;;;;;18.41;61.21;101094.69;4997033;28;20201;-71
2021/08/25 10:09:01;;;;;;;4.03;2.50;;;;;;;18.43;61.66;101100.84;5014599;28;20210;-72
2021/08/25 10:11:31;;;;;;;6.27;2.50;;;;;;;18.50;60.40;101084.13;5013962;28;20679;-72
2021/08/25 10:13:58;;;;;;;10.90;2.97;;;;;;;18.46;60.62;101096.16;5014877;28;20203;-73
2021/08/25 10:16:46;;;;;;;4.43;2.50;;;;;;;18.66;61.15;101077.38;5015345;28;20169;-70
2021/08/25 10:19:36;;;;;;;7.30;2.57;;;;;;;19.00;59.99;101082.66;5014622;28;20158;-71
2021/08/25 10:22:14;;;;;;;5.30;2.93;;;;;;;18.96;59.79;101062.28;5013396;28;20208;-73
2021/08/25 10:24:57;;;;;;;9.30;3.17;;;;;;;18.99;60.35;101046.66;5014759;28;20708;-71
2021/08/25 10:27:23;;;;;;;6.40;2.50;;;;;;;19.08;59.90;101063.06;5014491;28;20173;-73
2021/08/25 10:30:18;;;;;;;4.27;2.53;;;;;;;19.17;59.96;101038.78;5014032;28;20642;-71
2021/08/25 10:32:52;;;;;;;4.10;2.93;;;;;;;19.74;59.94;101025.78;5005050;28;20236;-71
2021/08/25 10:35:29;;;;;;;7.20;3.27;;;;;;;19.82;58.41;101039.50;5013271;28;20255;-71
2021/08/25 10:38:20;;;;;;;4.23;2.50;;;;;;;20.18;58.20;101002.84;5013908;28;20689;-71
2021/08/25 10:40:47;;;;;;;3.27;2.20;;;;;;;20.04;58.51;101028.44;5014036;28;20181;-72
2021/08/25 10:43:35;;;;;;;3.43;2.33;;;;;;;19.80;59.84;101041.50;5012991;28;20177;-72
2021/08/25 10:46:01;;;;;;;4.83;1.97;;;;;;;19.75;59.76;101019.38;5013261;28;20189;-71
2021/08/25 10:48:41;;;;;;;5.20;2.30;;;;;;;19.52;60.69;101003.25;5013121;28;20199;-71
2021/08/25 10:51:22;;;;;;;4.27;1.90;;;;;;;19.08;61.96;100957.56;5014555;28;20202;-72
2021/08/25 10:53:48;;;;;;;7.43;1.90;;;;;;;19.05;62.25;100994.72;5013693;28;20643;-72
2021/08/25 10:56:22;;;;;;;3.17;1.50;;;;;;;18.79;62.62;101006.88;5012623;28;20180;-71
2021/08/25 10:58:51;;;;;;;5.03;1.87;;;;;;;18.89;62.80;100998.84;5014019;28;20169;-71
2021/08/25 11:01:24;;;;;;;3.53;1.90;;;;;;;19.55;60.86;100981.38;5012526;28;20197;-70
2021/08/25 11:03:50;;;;;;;4.10;2.10;;;;;;;20.03;60.68;100982.53;5012250;28;20176;-70
2021/08/25 11:06:32;;;;;;;5.43;1.97;;;;;;;20.58;59.60;100975.69;5013797;28;20328;-71
2021/08/25 11:09:11;;;;;;;2.50;1.67;;;;;;;20.26;60.43;100974.03;5012600;28;20507;-71
2021/08/25 11:11:36;;;;;;;4.57;2.00;;;;;;;20.03;61.69;100971.69;5012427;28;20228;-70
2021/08/25 11:14:02;;;;;;;2.80;1.60;;;;;;;19.61;61.93;100958.31;5013529;28;20274;-70
2021/08/25 11:16:27;;;;;;;5.97;2.10;;;;;;;19.37;62.86;100953.19;5012307;28;20279;-70
2021/08/25 11:18:52;;;;;;;5.53;2.03;;;;;;;19.89;62.61;100940.44;5014097;28;20234;-71